Alice Town, Bahamas

7:29 AM EST on December 25, 2014 (GMT -0500)
IBIMINIA2 | Change Station
CLOSE
Current Station
Personal Weather Station
Location: Alice Town, BIMINI
Elevation: 0 ft
Nearby Weather Stations

Elev 0 ft 25.73 °N, 79.30 °W | Updated 9 minutes ago

Mostly Cloudy
Mostly Cloudy
75.3 °F
Feels Like 74 °F
N
5.0
Wind Variable Wind from WNW

Today
High -- | Low -- °F
--% Chance of Precip.
Yesterday
High -- | Low -- °F
Precip. -- in
7:01 AM 5:33 PM
Waxing Crescent, 16% visible
Pressure 30.08 in
Visibility 9.0 miles
Clouds Scattered Clouds 2800 ft
Mostly Cloudy 3600 ft
Heat Index 74 °F
Dew Point 74 °F
Humidity 94%
Rainfall 0.15 in
Snow Depth Not available.
UV 0 out of 12
Pollen Not available.
Air Quality Not available.
Flu Activity Not available.
METAR KFLL 251153Z 01003KT 9SM SCT028 BKN036 19/18 A3008 RMK AO2 RAE19B31E41 SLP185 P0000 60028 70031 T01940183 10250 20194 53014

More Conditions Fewer Conditions

Pressure 30.08 in
Visibility 9.0 miles
Clouds Scattered Clouds 2800 ft
Mostly Cloudy 3600 ft
Heat Index 74 °F
Dew Point 74 °F
Humidity 94%
Rainfall 0.15 in
Snow Depth Not available.
UV 0 out of 12
Pollen Not available.
Air Quality Not available.
Flu Activity Not available.
METAR KFLL 251153Z 01003KT 9SM SCT028 BKN036 19/18 A3008 RMK AO2 RAE19B31E41 SLP185 P0000 60028 70031 T01940183 10250 20194 53014

More Conditions Fewer Conditions

10-Day Weather Forecast

Almanac

Astronomy

Dec. 25, 2014 Rise Set
Actual Time
Civil Twilight
Nautical Twilight
Astronomical Twilight
Moon
Length of Visible Light
Length of Day
Tomorrow will be .
, % of the Moon is Illuminated

Today's Extremes

Country Highs Country Lows

Community

WunderPhotos

Upload Photos

1,780,266 photos uploaded!

WunderBlogs® & News

Nearby

Air Quality

  Air Quality AQ Index Pollutant
Not available.

Snow Depth

Station Depth Elevation

Earthquake Activity

City Distance Mag. Time & Date
Minimum magnitude displayed is 2.5.

Coastal Water Temperatures

Place Temperature

Nearby Weather Stations